<?xml version="1.0" encoding="UTF-8" standalone="no" ?>
<gpx xmlns="http://www.topografix.com/GPX/1/1" xmlns:xsi="http://www.w3.org/2001/XMLSchema-instance" xsi:schemaLocation="http://www.topografix.com/GPX/1/1 http://www.topografix.com/GPX/1/1/gpx.xsd" version="1.1" creator="VisuGPX - https://www.visugpx.com">
  <metadata>
    <name>MN Vincennes Soutenue I1</name>
    <desc><![CDATA[Marche Nordique dans le bois de Vincennes, à allure soutenue, avec Inge.]]></desc>
  </metadata>
  <trk>
    <name><![CDATA[MN RIF Vincennes ]]></name>
    <cmt><![CDATA[soutenue Inge]]></cmt>
    <desc><![CDATA[comment ...]]></desc>
    <trkseg>
      <trkpt lat="48.83973" lon="2.43669">
        <ele>28</ele>
        <time>2014-05-07T09:58:08Z</time>
      </trkpt>
      <trkpt lat="48.83973" lon="2.43669">
        <ele>28</ele>
        <time>2014-05-07T09:58:09Z</time>
      </trkpt>
      <trkpt lat="48.83968" lon="2.4366">
        <ele>40</ele>
        <time>2014-05-07T09:58:17Z</time>
      </trkpt>
      <trkpt lat="48.8397" lon="2.43657">
        <ele>44</ele>
        <time>2014-05-07T09:58:21Z</time>
      </trkpt>
      <trkpt lat="48.83972" lon="2.43654">
        <ele>44</ele>
        <time>2014-05-07T09:58:52Z</time>
      </trkpt>
      <trkpt lat="48.83974" lon="2.43655">
        <ele>43</ele>
        <time>2014-05-07T09:58:54Z</time>
      </trkpt>
      <trkpt lat="48.83978" lon="2.4366">
        <ele>45</ele>
        <time>2014-05-07T09:59:00Z</time>
      </trkpt>
      <trkpt lat="48.83978" lon="2.43664">
        <ele>47</ele>
        <time>2014-05-07T09:59:03Z</time>
      </trkpt>
      <trkpt lat="48.83978" lon="2.43668">
        <ele>48</ele>
        <time>2014-05-07T09:59:06Z</time>
      </trkpt>
      <trkpt lat="48.83967" lon="2.43686">
        <ele>47</ele>
        <time>2014-05-07T09:59:19Z</time>
      </trkpt>
      <trkpt lat="48.83966" lon="2.43688">
        <ele>48</ele>
        <time>2014-05-07T09:59:21Z</time>
      </trkpt>
      <trkpt lat="48.83965" lon="2.4369">
        <ele>48</ele>
        <time>2014-05-07T09:59:26Z</time>
      </trkpt>
      <trkpt lat="48.83958" lon="2.43702">
        <ele>49</ele>
        <time>2014-05-07T09:59:34Z</time>
      </trkpt>
      <trkpt lat="48.83956" lon="2.43705">
        <ele>49</ele>
        <time>2014-05-07T09:59:36Z</time>
      </trkpt>
      <trkpt lat="48.83954" lon="2.43708">
        <ele>49</ele>
        <time>2014-05-07T09:59:39Z</time>
      </trkpt>
      <trkpt lat="48.83951" lon="2.43713">
        <ele>50</ele>
        <time>2014-05-07T09:59:44Z</time>
      </trkpt>
      <trkpt lat="48.8395" lon="2.43716">
        <ele>50</ele>
        <time>2014-05-07T09:59:48Z</time>
      </trkpt>
      <trkpt lat="48.83936" lon="2.43743">
        <ele>51</ele>
        <time>2014-05-07T10:00:02Z</time>
      </trkpt>
      <trkpt lat="48.83939" lon="2.43759">
        <ele>51</ele>
        <time>2014-05-07T10:00:11Z</time>
      </trkpt>
      <trkpt lat="48.83948" lon="2.4379">
        <ele>46</ele>
        <time>2014-05-07T10:00:28Z</time>
      </trkpt>
      <trkpt lat="48.83946" lon="2.43797">
        <ele>48</ele>
        <time>2014-05-07T10:00:49Z</time>
      </trkpt>
      <trkpt lat="48.83948" lon="2.43799">
        <ele>47</ele>
        <time>2014-05-07T10:00:51Z</time>
      </trkpt>
      <trkpt lat="48.83981" lon="2.43838">
        <ele>41</ele>
        <time>2014-05-07T10:01:21Z</time>
      </trkpt>
      <trkpt lat="48.84018" lon="2.43859">
        <ele>41</ele>
        <time>2014-05-07T10:01:51Z</time>
      </trkpt>
      <trkpt lat="48.84035" lon="2.43872">
        <ele>42</ele>
        <time>2014-05-07T10:02:05Z</time>
      </trkpt>
      <trkpt lat="48.84047" lon="2.43879">
        <ele>45</ele>
        <time>2014-05-07T10:02:13Z</time>
      </trkpt>
      <trkpt lat="48.84061" lon="2.43895">
        <ele>45</ele>
        <time>2014-05-07T10:02:24Z</time>
      </trkpt>
      <trkpt lat="48.8407" lon="2.43934">
        <ele>46</ele>
        <time>2014-05-07T10:02:43Z</time>
      </trkpt>
      <trkpt lat="48.84069" lon="2.43942">
        <ele>49</ele>
        <time>2014-05-07T10:02:47Z</time>
      </trkpt>
      <trkpt lat="48.84078" lon="2.43992">
        <ele>49</ele>
        <time>2014-05-07T10:03:18Z</time>
      </trkpt>
      <trkpt lat="48.84078" lon="2.44">
        <ele>48</ele>
        <time>2014-05-07T10:03:22Z</time>
      </trkpt>
      <trkpt lat="48.84075" lon="2.44053">
        <ele>51</ele>
        <time>2014-05-07T10:03:47Z</time>
      </trkpt>
      <trkpt lat="48.84074" lon="2.44058">
        <ele>51</ele>
        <time>2014-05-07T10:03:49Z</time>
      </trkpt>
      <trkpt lat="48.84075" lon="2.44062">
        <ele>54</ele>
        <time>2014-05-07T10:03:52Z</time>
      </trkpt>
      <trkpt lat="48.84074" lon="2.44072">
        <ele>52</ele>
        <time>2014-05-07T10:03:58Z</time>
      </trkpt>
      <trkpt lat="48.84071" lon="2.44115">
        <ele>47</ele>
        <time>2014-05-07T10:04:19Z</time>
      </trkpt>
      <trkpt lat="48.84067" lon="2.44124">
        <ele>48</ele>
        <time>2014-05-07T10:04:25Z</time>
      </trkpt>
      <trkpt lat="48.84063" lon="2.44169">
        <ele>52</ele>
        <time>2014-05-07T10:04:46Z</time>
      </trkpt>
      <trkpt lat="48.84061" lon="2.44235">
        <ele>49</ele>
        <time>2014-05-07T10:05:17Z</time>
      </trkpt>
      <trkpt lat="48.84061" lon="2.44239">
        <ele>48</ele>
        <time>2014-05-07T10:05:19Z</time>
      </trkpt>
      <trkpt lat="48.84057" lon="2.44274">
        <ele>46</ele>
        <time>2014-05-07T10:05:37Z</time>
      </trkpt>
      <trkpt lat="48.84053" lon="2.44303">
        <ele>46</ele>
        <time>2014-05-07T10:05:49Z</time>
      </trkpt>
      <trkpt lat="48.84051" lon="2.44308">
        <ele>48</ele>
        <time>2014-05-07T10:05:52Z</time>
      </trkpt>
      <trkpt lat="48.84045" lon="2.44361">
        <ele>46</ele>
        <time>2014-05-07T10:06:15Z</time>
      </trkpt>
      <trkpt lat="48.84045" lon="2.44367">
        <ele>48</ele>
        <time>2014-05-07T10:06:18Z</time>
      </trkpt>
      <trkpt lat="48.84042" lon="2.44374">
        <ele>45</ele>
        <time>2014-05-07T10:06:24Z</time>
      </trkpt>
      <trkpt lat="48.84041" lon="2.44379">
        <ele>44</ele>
        <time>2014-05-07T10:06:28Z</time>
      </trkpt>
      <trkpt lat="48.84043" lon="2.4444">
        <ele>41</ele>
        <time>2014-05-07T10:06:58Z</time>
      </trkpt>
      <trkpt lat="48.84037" lon="2.44472">
        <ele>39</ele>
        <time>2014-05-07T10:07:11Z</time>
      </trkpt>
      <trkpt lat="48.84037" lon="2.44477">
        <ele>39</ele>
        <time>2014-05-07T10:07:14Z</time>
      </trkpt>
      <trkpt lat="48.84036" lon="2.44482">
        <ele>40</ele>
        <time>2014-05-07T10:07:20Z</time>
      </trkpt>
      <trkpt lat="48.84037" lon="2.44488">
        <ele>37</ele>
        <time>2014-05-07T10:07:25Z</time>
      </trkpt>
      <trkpt lat="48.84035" lon="2.44508">
        <ele>35</ele>
        <time>2014-05-07T10:07:33Z</time>
      </trkpt>
      <trkpt lat="48.84034" lon="2.44514">
        <ele>35</ele>
        <time>2014-05-07T10:07:36Z</time>
      </trkpt>
      <trkpt lat="48.84035" lon="2.44528">
        <ele>35</ele>
        <time>2014-05-07T10:07:43Z</time>
      </trkpt>
      <trkpt lat="48.84036" lon="2.44534">
        <ele>36</ele>
        <time>2014-05-07T10:07:46Z</time>
      </trkpt>
      <trkpt lat="48.84034" lon="2.44566">
        <ele>37</ele>
        <time>2014-05-07T10:08:03Z</time>
      </trkpt>
      <trkpt lat="48.84031" lon="2.44579">
        <ele>34</ele>
        <time>2014-05-07T10:08:08Z</time>
      </trkpt>
      <trkpt lat="48.84027" lon="2.44597">
        <ele>36</ele>
        <time>2014-05-07T10:08:22Z</time>
      </trkpt>
      <trkpt lat="48.84027" lon="2.44601">
        <ele>38</ele>
        <time>2014-05-07T10:08:25Z</time>
      </trkpt>
      <trkpt lat="48.84028" lon="2.44605">
        <ele>35</ele>
        <time>2014-05-07T10:08:41Z</time>
      </trkpt>
      <trkpt lat="48.84031" lon="2.44611">
        <ele>35</ele>
        <time>2014-05-07T10:08:46Z</time>
      </trkpt>
      <trkpt lat="48.84034" lon="2.44616">
        <ele>37</ele>
        <time>2014-05-07T10:08:49Z</time>
      </trkpt>
      <trkpt lat="48.84038" lon="2.44621">
        <ele>39</ele>
        <time>2014-05-07T10:08:54Z</time>
      </trkpt>
      <trkpt lat="48.84044" lon="2.44624">
        <ele>41</ele>
        <time>2014-05-07T10:08:57Z</time>
      </trkpt>
      <trkpt lat="48.84087" lon="2.44651">
        <ele>42</ele>
        <time>2014-05-07T10:09:26Z</time>
      </trkpt>
      <trkpt lat="48.84093" lon="2.44651">
        <ele>45</ele>
        <time>2014-05-07T10:09:30Z</time>
      </trkpt>
      <trkpt lat="48.84121" lon="2.44662">
        <ele>48</ele>
        <time>2014-05-07T10:09:49Z</time>
      </trkpt>
      <trkpt lat="48.84126" lon="2.44664">
        <ele>50</ele>
        <time>2014-05-07T10:09:52Z</time>
      </trkpt>
      <trkpt lat="48.84167" lon="2.44673">
        <ele>44</ele>
        <time>2014-05-07T10:10:25Z</time>
      </trkpt>
      <trkpt lat="48.84182" lon="2.44678">
        <ele>46</ele>
        <time>2014-05-07T10:10:38Z</time>
      </trkpt>
      <trkpt lat="48.84198" lon="2.44682">
        <ele>50</ele>
        <time>2014-05-07T10:10:48Z</time>
      </trkpt>
      <trkpt lat="48.84217" lon="2.44693">
        <ele>52</ele>
        <time>2014-05-07T10:10:59Z</time>
      </trkpt>
      <trkpt lat="48.84224" lon="2.44689">
        <ele>47</ele>
        <time>2014-05-07T10:11:05Z</time>
      </trkpt>
      <trkpt lat="48.8423" lon="2.44689">
        <ele>47</ele>
        <time>2014-05-07T10:11:13Z</time>
      </trkpt>
      <trkpt lat="48.84241" lon="2.44688">
        <ele>47</ele>
        <time>2014-05-07T10:11:25Z</time>
      </trkpt>
      <trkpt lat="48.84245" lon="2.44687">
        <ele>49</ele>
        <time>2014-05-07T10:11:27Z</time>
      </trkpt>
      <trkpt lat="48.84248" lon="2.44686">
        <ele>50</ele>
        <time>2014-05-07T10:11:29Z</time>
      </trkpt>
      <trkpt lat="48.84302" lon="2.44685">
        <ele>48</ele>
        <time>2014-05-07T10:11:59Z</time>
      </trkpt>
      <trkpt lat="48.84342" lon="2.44675">
        <ele>46</ele>
        <time>2014-05-07T10:12:34Z</time>
      </trkpt>
      <trkpt lat="48.8436" lon="2.44696">
        <ele>45</ele>
        <time>2014-05-07T10:12:53Z</time>
      </trkpt>
      <trkpt lat="48.84375" lon="2.44707">
        <ele>48</ele>
        <time>2014-05-07T10:13:13Z</time>
      </trkpt>
      <trkpt lat="48.84388" lon="2.44714">
        <ele>45</ele>
        <time>2014-05-07T10:13:23Z</time>
      </trkpt>
      <trkpt lat="48.84397" lon="2.44738">
        <ele>36</ele>
        <time>2014-05-07T10:13:38Z</time>
      </trkpt>
      <trkpt lat="48.84396" lon="2.44742">
        <ele>34</ele>
        <time>2014-05-07T10:13:41Z</time>
      </trkpt>
      <trkpt lat="48.84397" lon="2.44747">
        <ele>34</ele>
        <time>2014-05-07T10:13:45Z</time>
      </trkpt>
      <trkpt lat="48.84406" lon="2.44768">
        <ele>35</ele>
        <time>2014-05-07T10:14:00Z</time>
      </trkpt>
      <trkpt lat="48.84422" lon="2.44812">
        <ele>38</ele>
        <time>2014-05-07T10:14:25Z</time>
      </trkpt>
      <trkpt lat="48.84423" lon="2.44821">
        <ele>39</ele>
        <time>2014-05-07T10:14:29Z</time>
      </trkpt>
      <trkpt lat="48.84425" lon="2.44882">
        <ele>40</ele>
        <time>2014-05-07T10:15:00Z</time>
      </trkpt>
      <trkpt lat="48.84419" lon="2.44956">
        <ele>43</ele>
        <time>2014-05-07T10:15:31Z</time>
      </trkpt>
      <trkpt lat="48.84417" lon="2.45025">
        <ele>41</ele>
        <time>2014-05-07T10:16:02Z</time>
      </trkpt>
      <trkpt lat="48.84418" lon="2.45029">
        <ele>43</ele>
        <time>2014-05-07T10:16:05Z</time>
      </trkpt>
      <trkpt lat="48.84416" lon="2.4505">
        <ele>44</ele>
        <time>2014-05-07T10:16:13Z</time>
      </trkpt>
      <trkpt lat="48.84411" lon="2.45075">
        <ele>44</ele>
        <time>2014-05-07T10:16:43Z</time>
      </trkpt>
      <trkpt lat="48.84392" lon="2.45122">
        <ele>43</ele>
        <time>2014-05-07T10:17:14Z</time>
      </trkpt>
      <trkpt lat="48.84375" lon="2.4514">
        <ele>43</ele>
        <time>2014-05-07T10:17:29Z</time>
      </trkpt>
      <trkpt lat="48.84372" lon="2.45147">
        <ele>46</ele>
        <time>2014-05-07T10:17:33Z</time>
      </trkpt>
      <trkpt lat="48.84371" lon="2.45149">
        <ele>48</ele>
        <time>2014-05-07T10:17:35Z</time>
      </trkpt>
      <trkpt lat="48.84369" lon="2.45184">
        <ele>43</ele>
        <time>2014-05-07T10:17:53Z</time>
      </trkpt>
      <trkpt lat="48.84369" lon="2.45187">
        <ele>41</ele>
        <time>2014-05-07T10:17:55Z</time>
      </trkpt>
      <trkpt lat="48.84371" lon="2.4519">
        <ele>41</ele>
        <time>2014-05-07T10:17:57Z</time>
      </trkpt>
      <trkpt lat="48.84371" lon="2.45194">
        <ele>39</ele>
        <time>2014-05-07T10:17:59Z</time>
      </trkpt>
      <trkpt lat="48.84371" lon="2.45204">
        <ele>39</ele>
        <time>2014-05-07T10:18:04Z</time>
      </trkpt>
      <trkpt lat="48.84365" lon="2.45254">
        <ele>40</ele>
        <time>2014-05-07T10:18:28Z</time>
      </trkpt>
      <trkpt lat="48.84365" lon="2.45259">
        <ele>42</ele>
        <time>2014-05-07T10:18:30Z</time>
      </trkpt>
      <trkpt lat="48.84365" lon="2.45264">
        <ele>44</ele>
        <time>2014-05-07T10:18:32Z</time>
      </trkpt>
      <trkpt lat="48.84364" lon="2.45305">
        <ele>43</ele>
        <time>2014-05-07T10:18:53Z</time>
      </trkpt>
      <trkpt lat="48.84355" lon="2.45372">
        <ele>42</ele>
        <time>2014-05-07T10:19:23Z</time>
      </trkpt>
      <trkpt lat="48.84356" lon="2.45376">
        <ele>46</ele>
        <time>2014-05-07T10:19:25Z</time>
      </trkpt>
      <trkpt lat="48.84357" lon="2.4538">
        <ele>47</ele>
        <time>2014-05-07T10:19:27Z</time>
      </trkpt>
      <trkpt lat="48.84355" lon="2.45395">
        <ele>43</ele>
        <time>2014-05-07T10:19:33Z</time>
      </trkpt>
      <trkpt lat="48.84355" lon="2.454">
        <ele>43</ele>
        <time>2014-05-07T10:19:35Z</time>
      </trkpt>
      <trkpt lat="48.84354" lon="2.45411">
        <ele>45</ele>
        <time>2014-05-07T10:19:39Z</time>
      </trkpt>
      <trkpt lat="48.84351" lon="2.45477">
        <ele>43</ele>
        <time>2014-05-07T10:20:10Z</time>
      </trkpt>
      <trkpt lat="48.84351" lon="2.45535">
        <ele>40</ele>
        <time>2014-05-07T10:20:41Z</time>
      </trkpt>
      <trkpt lat="48.8435" lon="2.45553">
        <ele>42</ele>
        <time>2014-05-07T10:20:50Z</time>
      </trkpt>
      <trkpt lat="48.84347" lon="2.45558">
        <ele>43</ele>
        <time>2014-05-07T10:20:55Z</time>
      </trkpt>
      <trkpt lat="48.84345" lon="2.45563">
        <ele>41</ele>
        <time>2014-05-07T10:21:04Z</time>
      </trkpt>
      <trkpt lat="48.8434" lon="2.45566">
        <ele>41</ele>
        <time>2014-05-07T10:22:56Z</time>
      </trkpt>
      <trkpt lat="48.84337" lon="2.45578">
        <ele>42</ele>
        <time>2014-05-07T10:25:57Z</time>
      </trkpt>
      <trkpt lat="48.84335" lon="2.45584">
        <ele>41</ele>
        <time>2014-05-07T10:26:01Z</time>
      </trkpt>
      <trkpt lat="48.84324" lon="2.4561">
        <ele>41</ele>
        <time>2014-05-07T10:26:18Z</time>
      </trkpt>
      <trkpt lat="48.84322" lon="2.45618">
        <ele>43</ele>
        <time>2014-05-07T10:26:22Z</time>
      </trkpt>
      <trkpt lat="48.84308" lon="2.45646">
        <ele>43</ele>
        <time>2014-05-07T10:26:40Z</time>
      </trkpt>
      <trkpt lat="48.84278" lon="2.45652">
        <ele>38</ele>
        <time>2014-05-07T10:26:58Z</time>
      </trkpt>
      <trkpt lat="48.84266" lon="2.4565">
        <ele>38</ele>
        <time>2014-05-07T10:27:06Z</time>
      </trkpt>
      <trkpt lat="48.84262" lon="2.4565">
        <ele>40</ele>
        <time>2014-05-07T10:27:08Z</time>
      </trkpt>
      <trkpt lat="48.84257" lon="2.45648">
        <ele>43</ele>
        <time>2014-05-07T10:27:13Z</time>
      </trkpt>
      <trkpt lat="48.84254" lon="2.4565">
        <ele>43</ele>
        <time>2014-05-07T10:27:20Z</time>
      </trkpt>
      <trkpt lat="48.84206" lon="2.45642">
        <ele>38</ele>
        <time>2014-05-07T10:27:50Z</time>
      </trkpt>
      <trkpt lat="48.84195" lon="2.45638">
        <ele>38</ele>
        <time>2014-05-07T10:27:58Z</time>
      </trkpt>
      <trkpt lat="48.8419" lon="2.45637">
        <ele>41</ele>
        <time>2014-05-07T10:28:02Z</time>
      </trkpt>
      <trkpt lat="48.84187" lon="2.45638">
        <ele>40</ele>
        <time>2014-05-07T10:28:05Z</time>
      </trkpt>
      <trkpt lat="48.84185" lon="2.45637">
        <ele>41</ele>
        <time>2014-05-07T10:28:07Z</time>
      </trkpt>
      <trkpt lat="48.84173" lon="2.45633">
        <ele>41</ele>
        <time>2014-05-07T10:28:15Z</time>
      </trkpt>
      <trkpt lat="48.84169" lon="2.45631">
        <ele>43</ele>
        <time>2014-05-07T10:28:17Z</time>
      </trkpt>
      <trkpt lat="48.84164" lon="2.4563">
        <ele>42</ele>
        <time>2014-05-07T10:28:21Z</time>
      </trkpt>
      <trkpt lat="48.84116" lon="2.45641">
        <ele>42</ele>
        <time>2014-05-07T10:28:52Z</time>
      </trkpt>
      <trkpt lat="48.84098" lon="2.45643">
        <ele>42</ele>
        <time>2014-05-07T10:29:04Z</time>
      </trkpt>
      <trkpt lat="48.84052" lon="2.45668">
        <ele>39</ele>
        <time>2014-05-07T10:29:35Z</time>
      </trkpt>
      <trkpt lat="48.84017" lon="2.45705">
        <ele>37</ele>
        <time>2014-05-07T10:30:05Z</time>
      </trkpt>
      <trkpt lat="48.84005" lon="2.45718">
        <ele>38</ele>
        <time>2014-05-07T10:30:15Z</time>
      </trkpt>
      <trkpt lat="48.83991" lon="2.45729">
        <ele>40</ele>
        <time>2014-05-07T10:30:27Z</time>
      </trkpt>
      <trkpt lat="48.83989" lon="2.45735">
        <ele>41</ele>
        <time>2014-05-07T10:30:33Z</time>
      </trkpt>
      <trkpt lat="48.83968" lon="2.45796">
        <ele>44</ele>
        <time>2014-05-07T10:31:05Z</time>
      </trkpt>
      <trkpt lat="48.83967" lon="2.45812">
        <ele>44</ele>
        <time>2014-05-07T10:31:16Z</time>
      </trkpt>
      <trkpt lat="48.83949" lon="2.45874">
        <ele>41</ele>
        <time>2014-05-07T10:31:46Z</time>
      </trkpt>
      <trkpt lat="48.83937" lon="2.45936">
        <ele>39</ele>
        <time>2014-05-07T10:32:16Z</time>
      </trkpt>
      <trkpt lat="48.8393" lon="2.45958">
        <ele>39</ele>
        <time>2014-05-07T10:32:28Z</time>
      </trkpt>
      <trkpt lat="48.83919" lon="2.46002">
        <ele>40</ele>
        <time>2014-05-07T10:32:48Z</time>
      </trkpt>
      <trkpt lat="48.83912" lon="2.46023">
        <ele>41</ele>
        <time>2014-05-07T10:32:59Z</time>
      </trkpt>
      <trkpt lat="48.83909" lon="2.46026">
        <ele>42</ele>
        <time>2014-05-07T10:33:01Z</time>
      </trkpt>
      <trkpt lat="48.83893" lon="2.46021">
        <ele>42</ele>
        <time>2014-05-07T10:33:13Z</time>
      </trkpt>
      <trkpt lat="48.83895" lon="2.46022">
        <ele>43</ele>
        <time>2014-05-07T10:33:36Z</time>
      </trkpt>
      <trkpt lat="48.83894" lon="2.46025">
        <ele>44</ele>
        <time>2014-05-07T10:33:50Z</time>
      </trkpt>
      <trkpt lat="48.8389" lon="2.46034">
        <ele>46</ele>
        <time>2014-05-07T10:33:56Z</time>
      </trkpt>
      <trkpt lat="48.83887" lon="2.46035">
        <ele>47</ele>
        <time>2014-05-07T10:33:58Z</time>
      </trkpt>
      <trkpt lat="48.83879" lon="2.46032">
        <ele>48</ele>
        <time>2014-05-07T10:34:04Z</time>
      </trkpt>
      <trkpt lat="48.83874" lon="2.4603">
        <ele>46</ele>
        <time>2014-05-07T10:34:08Z</time>
      </trkpt>
      <trkpt lat="48.83873" lon="2.46028">
        <ele>43</ele>
        <time>2014-05-07T10:34:11Z</time>
      </trkpt>
      <trkpt lat="48.83869" lon="2.46027">
        <ele>44</ele>
        <time>2014-05-07T10:34:15Z</time>
      </trkpt>
      <trkpt lat="48.83828" lon="2.46054">
        <ele>43</ele>
        <time>2014-05-07T10:34:45Z</time>
      </trkpt>
      <trkpt lat="48.83824" lon="2.46057">
        <ele>42</ele>
        <time>2014-05-07T10:34:48Z</time>
      </trkpt>
      <trkpt lat="48.83821" lon="2.46057">
        <ele>41</ele>
        <time>2014-05-07T10:34:50Z</time>
      </trkpt>
      <trkpt lat="48.83817" lon="2.46055">
        <ele>41</ele>
        <time>2014-05-07T10:34:52Z</time>
      </trkpt>
      <trkpt lat="48.83812" lon="2.46046">
        <ele>40</ele>
        <time>2014-05-07T10:34:59Z</time>
      </trkpt>
      <trkpt lat="48.838" lon="2.46005">
        <ele>35</ele>
        <time>2014-05-07T10:35:29Z</time>
      </trkpt>
      <trkpt lat="48.83783" lon="2.45981">
        <ele>34</ele>
        <time>2014-05-07T10:35:44Z</time>
      </trkpt>
      <trkpt lat="48.83774" lon="2.45971">
        <ele>33</ele>
        <time>2014-05-07T10:35:50Z</time>
      </trkpt>
      <trkpt lat="48.83731" lon="2.45958">
        <ele>29</ele>
        <time>2014-05-07T10:36:23Z</time>
      </trkpt>
      <trkpt lat="48.83726" lon="2.45957">
        <ele>30</ele>
        <time>2014-05-07T10:36:27Z</time>
      </trkpt>
      <trkpt lat="48.83704" lon="2.45953">
        <ele>32</ele>
        <time>2014-05-07T10:36:40Z</time>
      </trkpt>
      <trkpt lat="48.83698" lon="2.45952">
        <ele>35</ele>
        <time>2014-05-07T10:36:43Z</time>
      </trkpt>
      <trkpt lat="48.83681" lon="2.4595">
        <ele>35</ele>
        <time>2014-05-07T10:36:55Z</time>
      </trkpt>
      <trkpt lat="48.83637" lon="2.4595">
        <ele>36</ele>
        <time>2014-05-07T10:37:26Z</time>
      </trkpt>
      <trkpt lat="48.83625" lon="2.4595">
        <ele>41</ele>
        <time>2014-05-07T10:37:32Z</time>
      </trkpt>
      <trkpt lat="48.83603" lon="2.45951">
        <ele>42</ele>
        <time>2014-05-07T10:37:45Z</time>
      </trkpt>
      <trkpt lat="48.83589" lon="2.45953">
        <ele>41</ele>
        <time>2014-05-07T10:37:55Z</time>
      </trkpt>
      <trkpt lat="48.83556" lon="2.4598">
        <ele>40</ele>
        <time>2014-05-07T10:38:25Z</time>
      </trkpt>
      <trkpt lat="48.83546" lon="2.45995">
        <ele>42</ele>
        <time>2014-05-07T10:38:34Z</time>
      </trkpt>
      <trkpt lat="48.83542" lon="2.46001">
        <ele>44</ele>
        <time>2014-05-07T10:38:37Z</time>
      </trkpt>
      <trkpt lat="48.83539" lon="2.46006">
        <ele>47</ele>
        <time>2014-05-07T10:38:40Z</time>
      </trkpt>
      <trkpt lat="48.83523" lon="2.46046">
        <ele>47</ele>
        <time>2014-05-07T10:39:00Z</time>
      </trkpt>
      <trkpt lat="48.83503" lon="2.46098">
        <ele>47</ele>
        <time>2014-05-07T10:39:31Z</time>
      </trkpt>
      <trkpt lat="48.83498" lon="2.46108">
        <ele>48</ele>
        <time>2014-05-07T10:39:37Z</time>
      </trkpt>
      <trkpt lat="48.83497" lon="2.46112">
        <ele>47</ele>
        <time>2014-05-07T10:39:44Z</time>
      </trkpt>
      <trkpt lat="48.83498" lon="2.46116">
        <ele>47</ele>
        <time>2014-05-07T10:40:01Z</time>
      </trkpt>
      <trkpt lat="48.835" lon="2.46166">
        <ele>48</ele>
        <time>2014-05-07T10:40:27Z</time>
      </trkpt>
      <trkpt lat="48.83496" lon="2.46199">
        <ele>47</ele>
        <time>2014-05-07T10:40:42Z</time>
      </trkpt>
      <trkpt lat="48.83493" lon="2.46257">
        <ele>43</ele>
        <time>2014-05-07T10:41:15Z</time>
      </trkpt>
      <trkpt lat="48.83496" lon="2.46273">
        <ele>42</ele>
        <time>2014-05-07T10:41:23Z</time>
      </trkpt>
      <trkpt lat="48.83502" lon="2.46288">
        <ele>41</ele>
        <time>2014-05-07T10:41:31Z</time>
      </trkpt>
      <trkpt lat="48.83502" lon="2.46313">
        <ele>39</ele>
        <time>2014-05-07T10:41:44Z</time>
      </trkpt>
      <trkpt lat="48.83488" lon="2.4634">
        <ele>39</ele>
        <time>2014-05-07T10:41:59Z</time>
      </trkpt>
      <trkpt lat="48.83482" lon="2.46355">
        <ele>41</ele>
        <time>2014-05-07T10:42:05Z</time>
      </trkpt>
      <trkpt lat="48.83476" lon="2.46368">
        <ele>42</ele>
        <time>2014-05-07T10:42:11Z</time>
      </trkpt>
      <trkpt lat="48.83448" lon="2.46407">
        <ele>43</ele>
        <time>2014-05-07T10:42:33Z</time>
      </trkpt>
      <trkpt lat="48.83428" lon="2.4643">
        <ele>43</ele>
        <time>2014-05-07T10:43:00Z</time>
      </trkpt>
      <trkpt lat="48.83392" lon="2.4645">
        <ele>47</ele>
        <time>2014-05-07T10:43:22Z</time>
      </trkpt>
      <trkpt lat="48.83361" lon="2.46459">
        <ele>47</ele>
        <time>2014-05-07T10:43:40Z</time>
      </trkpt>
      <trkpt lat="48.83351" lon="2.46454">
        <ele>44</ele>
        <time>2014-05-07T10:43:46Z</time>
      </trkpt>
      <trkpt lat="48.83346" lon="2.46457">
        <ele>41</ele>
        <time>2014-05-07T10:43:51Z</time>
      </trkpt>
      <trkpt lat="48.83341" lon="2.46456">
        <ele>42</ele>
        <time>2014-05-07T10:43:55Z</time>
      </trkpt>
      <trkpt lat="48.83336" lon="2.46453">
        <ele>44</ele>
        <time>2014-05-07T10:43:58Z</time>
      </trkpt>
      <trkpt lat="48.83291" lon="2.4644">
        <ele>40</ele>
        <time>2014-05-07T10:44:28Z</time>
      </trkpt>
      <trkpt lat="48.83279" lon="2.46437">
        <ele>41</ele>
        <time>2014-05-07T10:44:36Z</time>
      </trkpt>
      <trkpt lat="48.8326" lon="2.46432">
        <ele>46</ele>
        <time>2014-05-07T10:44:51Z</time>
      </trkpt>
      <trkpt lat="48.83251" lon="2.46428">
        <ele>46</ele>
        <time>2014-05-07T10:45:02Z</time>
      </trkpt>
      <trkpt lat="48.83238" lon="2.46426">
        <ele>46</ele>
        <time>2014-05-07T10:45:09Z</time>
      </trkpt>
      <trkpt lat="48.83204" lon="2.46412">
        <ele>40</ele>
        <time>2014-05-07T10:45:39Z</time>
      </trkpt>
      <trkpt lat="48.83183" lon="2.46418">
        <ele>40</ele>
        <time>2014-05-07T10:45:55Z</time>
      </trkpt>
      <trkpt lat="48.83178" lon="2.46418">
        <ele>44</ele>
        <time>2014-05-07T10:45:58Z</time>
      </trkpt>
      <trkpt lat="48.83167" lon="2.46419">
        <ele>47</ele>
        <time>2014-05-07T10:46:04Z</time>
      </trkpt>
      <trkpt lat="48.83149" lon="2.46436">
        <ele>43</ele>
        <time>2014-05-07T10:46:21Z</time>
      </trkpt>
      <trkpt lat="48.83137" lon="2.46444">
        <ele>49</ele>
        <time>2014-05-07T10:46:30Z</time>
      </trkpt>
      <trkpt lat="48.83133" lon="2.46443">
        <ele>49</ele>
        <time>2014-05-07T10:46:32Z</time>
      </trkpt>
      <trkpt lat="48.8313" lon="2.4644">
        <ele>49</ele>
        <time>2014-05-07T10:46:34Z</time>
      </trkpt>
      <trkpt lat="48.83129" lon="2.46438">
        <ele>49</ele>
        <time>2014-05-07T10:46:36Z</time>
      </trkpt>
      <trkpt lat="48.83125" lon="2.46434">
        <ele>48</ele>
        <time>2014-05-07T10:46:41Z</time>
      </trkpt>
      <trkpt lat="48.83122" lon="2.46433">
        <ele>47</ele>
        <time>2014-05-07T10:46:43Z</time>
      </trkpt>
      <trkpt lat="48.83083" lon="2.46415">
        <ele>41</ele>
        <time>2014-05-07T10:47:15Z</time>
      </trkpt>
      <trkpt lat="48.83066" lon="2.46408">
        <ele>39</ele>
        <time>2014-05-07T10:47:36Z</time>
      </trkpt>
      <trkpt lat="48.83056" lon="2.46411">
        <ele>40</ele>
        <time>2014-05-07T10:47:44Z</time>
      </trkpt>
      <trkpt lat="48.83046" lon="2.46416">
        <ele>41</ele>
        <time>2014-05-07T10:47:51Z</time>
      </trkpt>
      <trkpt lat="48.83017" lon="2.46414">
        <ele>36</ele>
        <time>2014-05-07T10:48:13Z</time>
      </trkpt>
      <trkpt lat="48.83012" lon="2.4641">
        <ele>35</ele>
        <time>2014-05-07T10:48:16Z</time>
      </trkpt>
      <trkpt lat="48.83008" lon="2.4641">
        <ele>34</ele>
        <time>2014-05-07T10:48:19Z</time>
      </trkpt>
      <trkpt lat="48.8297" lon="2.46407">
        <ele>36</ele>
        <time>2014-05-07T10:48:44Z</time>
      </trkpt>
      <trkpt lat="48.8296" lon="2.46387">
        <ele>39</ele>
        <time>2014-05-07T10:48:54Z</time>
      </trkpt>
      <trkpt lat="48.82957" lon="2.46371">
        <ele>43</ele>
        <time>2014-05-07T10:49:01Z</time>
      </trkpt>
      <trkpt lat="48.82966" lon="2.46331">
        <ele>43</ele>
        <time>2014-05-07T10:49:21Z</time>
      </trkpt>
      <trkpt lat="48.8296" lon="2.46272">
        <ele>42</ele>
        <time>2014-05-07T10:49:52Z</time>
      </trkpt>
      <trkpt lat="48.82964" lon="2.46224">
        <ele>42</ele>
        <time>2014-05-07T10:50:15Z</time>
      </trkpt>
      <trkpt lat="48.82965" lon="2.46198">
        <ele>46</ele>
        <time>2014-05-07T10:50:26Z</time>
      </trkpt>
      <trkpt lat="48.82987" lon="2.46151">
        <ele>46</ele>
        <time>2014-05-07T10:50:53Z</time>
      </trkpt>
      <trkpt lat="48.82993" lon="2.46147">
        <ele>46</ele>
        <time>2014-05-07T10:50:58Z</time>
      </trkpt>
      <trkpt lat="48.82997" lon="2.4614">
        <ele>45</ele>
        <time>2014-05-07T10:51:05Z</time>
      </trkpt>
      <trkpt lat="48.82982" lon="2.46107">
        <ele>38</ele>
        <time>2014-05-07T10:51:50Z</time>
      </trkpt>
      <trkpt lat="48.82967" lon="2.46087">
        <ele>37</ele>
        <time>2014-05-07T10:52:03Z</time>
      </trkpt>
      <trkpt lat="48.82962" lon="2.46086">
        <ele>36</ele>
        <time>2014-05-07T10:52:07Z</time>
      </trkpt>
      <trkpt lat="48.82951" lon="2.46086">
        <ele>36</ele>
        <time>2014-05-07T10:52:14Z</time>
      </trkpt>
      <trkpt lat="48.82906" lon="2.46073">
        <ele>34</ele>
        <time>2014-05-07T10:52:45Z</time>
      </trkpt>
      <trkpt lat="48.82859" lon="2.46066">
        <ele>34</ele>
        <time>2014-05-07T10:53:16Z</time>
      </trkpt>
      <trkpt lat="48.82857" lon="2.46065">
        <ele>36</ele>
        <time>2014-05-07T10:53:18Z</time>
      </trkpt>
      <trkpt lat="48.82855" lon="2.46066">
        <ele>35</ele>
        <time>2014-05-07T10:53:24Z</time>
      </trkpt>
      <trkpt lat="48.8285" lon="2.46067">
        <ele>35</ele>
        <time>2014-05-07T10:53:28Z</time>
      </trkpt>
      <trkpt lat="48.8283" lon="2.46068">
        <ele>37</ele>
        <time>2014-05-07T10:53:40Z</time>
      </trkpt>
      <trkpt lat="48.82825" lon="2.46068">
        <ele>38</ele>
        <time>2014-05-07T10:53:44Z</time>
      </trkpt>
      <trkpt lat="48.82817" lon="2.46069">
        <ele>37</ele>
        <time>2014-05-07T10:53:50Z</time>
      </trkpt>
      <trkpt lat="48.82774" lon="2.46072">
        <ele>41</ele>
        <time>2014-05-07T10:54:17Z</time>
      </trkpt>
      <trkpt lat="48.82769" lon="2.46074">
        <ele>40</ele>
        <time>2014-05-07T10:54:23Z</time>
      </trkpt>
      <trkpt lat="48.82762" lon="2.46073">
        <ele>39</ele>
        <time>2014-05-07T10:54:28Z</time>
      </trkpt>
      <trkpt lat="48.82725" lon="2.46067">
        <ele>44</ele>
        <time>2014-05-07T10:54:53Z</time>
      </trkpt>
      <trkpt lat="48.8272" lon="2.46066">
        <ele>46</ele>
        <time>2014-05-07T10:54:56Z</time>
      </trkpt>
      <trkpt lat="48.82677" lon="2.46062">
        <ele>47</ele>
        <time>2014-05-07T10:55:26Z</time>
      </trkpt>
      <trkpt lat="48.82665" lon="2.46061">
        <ele>48</ele>
        <time>2014-05-07T10:55:39Z</time>
      </trkpt>
      <trkpt lat="48.82662" lon="2.46062">
        <ele>50</ele>
        <time>2014-05-07T10:56:05Z</time>
      </trkpt>
      <trkpt lat="48.82663" lon="2.46061">
        <ele>51</ele>
        <time>2014-05-07T10:59:00Z</time>
      </trkpt>
      <trkpt lat="48.82684" lon="2.46035">
        <ele>50</ele>
        <time>2014-05-07T10:59:23Z</time>
      </trkpt>
      <trkpt lat="48.82685" lon="2.46031">
        <ele>51</ele>
        <time>2014-05-07T10:59:26Z</time>
      </trkpt>
      <trkpt lat="48.82684" lon="2.46028">
        <ele>50</ele>
        <time>2014-05-07T10:59:28Z</time>
      </trkpt>
      <trkpt lat="48.82681" lon="2.46024">
        <ele>49</ele>
        <time>2014-05-07T10:59:32Z</time>
      </trkpt>
      <trkpt lat="48.82679" lon="2.46023">
        <ele>49</ele>
        <time>2014-05-07T10:59:34Z</time>
      </trkpt>
      <trkpt lat="48.82677" lon="2.46022">
        <ele>48</ele>
        <time>2014-05-07T10:59:36Z</time>
      </trkpt>
      <trkpt lat="48.82668" lon="2.46024">
        <ele>49</ele>
        <time>2014-05-07T10:59:44Z</time>
      </trkpt>
      <trkpt lat="48.82668" lon="2.46028">
        <ele>50</ele>
        <time>2014-05-07T11:00:49Z</time>
      </trkpt>
      <trkpt lat="48.82669" lon="2.4603">
        <ele>52</ele>
        <time>2014-05-07T11:02:02Z</time>
      </trkpt>
      <trkpt lat="48.82681" lon="2.46016">
        <ele>52</ele>
        <time>2014-05-07T11:02:17Z</time>
      </trkpt>
      <trkpt lat="48.82684" lon="2.46012">
        <ele>52</ele>
        <time>2014-05-07T11:02:33Z</time>
      </trkpt>
      <trkpt lat="48.82685" lon="2.46009">
        <ele>51</ele>
        <time>2014-05-07T11:02:36Z</time>
      </trkpt>
      <trkpt lat="48.82685" lon="2.46003">
        <ele>52</ele>
        <time>2014-05-07T11:02:40Z</time>
      </trkpt>
      <trkpt lat="48.82685" lon="2.46001">
        <ele>51</ele>
        <time>2014-05-07T11:02:42Z</time>
      </trkpt>
      <trkpt lat="48.82683" lon="2.45998">
        <ele>51</ele>
        <time>2014-05-07T11:02:48Z</time>
      </trkpt>
      <trkpt lat="48.82673" lon="2.45997">
        <ele>52</ele>
        <time>2014-05-07T11:02:56Z</time>
      </trkpt>
      <trkpt lat="48.8267" lon="2.45998">
        <ele>52</ele>
        <time>2014-05-07T11:02:58Z</time>
      </trkpt>
      <trkpt lat="48.82649" lon="2.46017">
        <ele>57</ele>
        <time>2014-05-07T11:03:29Z</time>
      </trkpt>
      <trkpt lat="48.82642" lon="2.46023">
        <ele>54</ele>
        <time>2014-05-07T11:03:41Z</time>
      </trkpt>
      <trkpt lat="48.82644" lon="2.4602">
        <ele>50</ele>
        <time>2014-05-07T11:06:00Z</time>
      </trkpt>
      <trkpt lat="48.82644" lon="2.46016">
        <ele>49</ele>
        <time>2014-05-07T11:06:03Z</time>
      </trkpt>
      <trkpt lat="48.82646" lon="2.46007">
        <ele>49</ele>
        <time>2014-05-07T11:06:09Z</time>
      </trkpt>
      <trkpt lat="48.8265" lon="2.46003">
        <ele>49</ele>
        <time>2014-05-07T11:06:13Z</time>
      </trkpt>
      <trkpt lat="48.82655" lon="2.46001">
        <ele>51</ele>
        <time>2014-05-07T11:06:17Z</time>
      </trkpt>
      <trkpt lat="48.82659" lon="2.46017">
        <ele>50</ele>
        <time>2014-05-07T11:06:35Z</time>
      </trkpt>
      <trkpt lat="48.82657" lon="2.46024">
        <ele>51</ele>
        <time>2014-05-07T11:06:39Z</time>
      </trkpt>
      <trkpt lat="48.82655" lon="2.46026">
        <ele>51</ele>
        <time>2014-05-07T11:06:41Z</time>
      </trkpt>
      <trkpt lat="48.82649" lon="2.46029">
        <ele>50</ele>
        <time>2014-05-07T11:06:47Z</time>
      </trkpt>
      <trkpt lat="48.82647" lon="2.46028">
        <ele>51</ele>
        <time>2014-05-07T11:06:49Z</time>
      </trkpt>
      <trkpt lat="48.82634" lon="2.45971">
        <ele>53</ele>
        <time>2014-05-07T11:07:18Z</time>
      </trkpt>
      <trkpt lat="48.82628" lon="2.45922">
        <ele>49</ele>
        <time>2014-05-07T11:09:07Z</time>
      </trkpt>
      <trkpt lat="48.82627" lon="2.45913">
        <ele>49</ele>
        <time>2014-05-07T11:09:27Z</time>
      </trkpt>
      <trkpt lat="48.82626" lon="2.4591">
        <ele>49</ele>
        <time>2014-05-07T11:09:30Z</time>
      </trkpt>
      <trkpt lat="48.82624" lon="2.45908">
        <ele>48</ele>
        <time>2014-05-07T11:09:32Z</time>
      </trkpt>
      <trkpt lat="48.82623" lon="2.45907">
        <ele>49</ele>
        <time>2014-05-07T11:09:34Z</time>
      </trkpt>
      <trkpt lat="48.82621" lon="2.45907">
        <ele>50</ele>
        <time>2014-05-07T11:09:36Z</time>
      </trkpt>
      <trkpt lat="48.82614" lon="2.45895">
        <ele>49</ele>
        <time>2014-05-07T11:09:46Z</time>
      </trkpt>
      <trkpt lat="48.82612" lon="2.45894">
        <ele>49</ele>
        <time>2014-05-07T11:09:48Z</time>
      </trkpt>
      <trkpt lat="48.82577" lon="2.45865">
        <ele>47</ele>
        <time>2014-05-07T11:10:19Z</time>
      </trkpt>
      <trkpt lat="48.82539" lon="2.45832">
        <ele>49</ele>
        <time>2014-05-07T11:10:50Z</time>
      </trkpt>
      <trkpt lat="48.82502" lon="2.45802">
        <ele>50</ele>
        <time>2014-05-07T11:11:20Z</time>
      </trkpt>
      <trkpt lat="48.82474" lon="2.45792">
        <ele>48</ele>
        <time>2014-05-07T11:11:44Z</time>
      </trkpt>
      <trkpt lat="48.82472" lon="2.45795">
        <ele>47</ele>
        <time>2014-05-07T11:11:48Z</time>
      </trkpt>
      <trkpt lat="48.8247" lon="2.45798">
        <ele>46</ele>
        <time>2014-05-07T11:11:51Z</time>
      </trkpt>
      <trkpt lat="48.82463" lon="2.45814">
        <ele>43</ele>
        <time>2014-05-07T11:12:03Z</time>
      </trkpt>
      <trkpt lat="48.8246" lon="2.45814">
        <ele>44</ele>
        <time>2014-05-07T11:12:05Z</time>
      </trkpt>
      <trkpt lat="48.82429" lon="2.45806">
        <ele>43</ele>
        <time>2014-05-07T11:12:37Z</time>
      </trkpt>
      <trkpt lat="48.82419" lon="2.45805">
        <ele>44</ele>
        <time>2014-05-07T11:12:43Z</time>
      </trkpt>
      <trkpt lat="48.82405" lon="2.45796">
        <ele>48</ele>
        <time>2014-05-07T11:12:55Z</time>
      </trkpt>
      <trkpt lat="48.82406" lon="2.45793">
        <ele>48</ele>
        <time>2014-05-07T11:13:00Z</time>
      </trkpt>
      <trkpt lat="48.82409" lon="2.45783">
        <ele>49</ele>
        <time>2014-05-07T11:13:04Z</time>
      </trkpt>
      <trkpt lat="48.82409" lon="2.45774">
        <ele>51</ele>
        <time>2014-05-07T11:13:10Z</time>
      </trkpt>
      <trkpt lat="48.82406" lon="2.45767">
        <ele>53</ele>
        <time>2014-05-07T11:14:01Z</time>
      </trkpt>
      <trkpt lat="48.82389" lon="2.45752">
        <ele>52</ele>
        <time>2014-05-07T11:14:16Z</time>
      </trkpt>
      <trkpt lat="48.82387" lon="2.45752">
        <ele>51</ele>
        <time>2014-05-07T11:14:18Z</time>
      </trkpt>
      <trkpt lat="48.8237" lon="2.45729">
        <ele>52</ele>
        <time>2014-05-07T11:14:38Z</time>
      </trkpt>
      <trkpt lat="48.82369" lon="2.45727">
        <ele>52</ele>
        <time>2014-05-07T11:14:39Z</time>
      </trkpt>
      <trkpt lat="48.82336" lon="2.45667">
        <ele>50</ele>
        <time>2014-05-07T11:15:09Z</time>
      </trkpt>
      <trkpt lat="48.8231" lon="2.4562">
        <ele>48</ele>
        <time>2014-05-07T11:15:39Z</time>
      </trkpt>
      <trkpt lat="48.82295" lon="2.45588">
        <ele>49</ele>
        <time>2014-05-07T11:15:58Z</time>
      </trkpt>
      <trkpt lat="48.82272" lon="2.45533">
        <ele>52</ele>
        <time>2014-05-07T11:16:29Z</time>
      </trkpt>
      <trkpt lat="48.82243" lon="2.45472">
        <ele>54</ele>
        <time>2014-05-07T11:17:00Z</time>
      </trkpt>
      <trkpt lat="48.82224" lon="2.45437">
        <ele>57</ele>
        <time>2014-05-07T11:17:20Z</time>
      </trkpt>
      <trkpt lat="48.82198" lon="2.45386">
        <ele>54</ele>
        <time>2014-05-07T11:17:51Z</time>
      </trkpt>
      <trkpt lat="48.8218" lon="2.45357">
        <ele>57</ele>
        <time>2014-05-07T11:18:09Z</time>
      </trkpt>
      <trkpt lat="48.82168" lon="2.45343">
        <ele>61</ele>
        <time>2014-05-07T11:18:22Z</time>
      </trkpt>
      <trkpt lat="48.82163" lon="2.45341">
        <ele>61</ele>
        <time>2014-05-07T11:18:26Z</time>
      </trkpt>
      <trkpt lat="48.8216" lon="2.45334">
        <ele>61</ele>
        <time>2014-05-07T11:18:29Z</time>
      </trkpt>
      <trkpt lat="48.82155" lon="2.45321">
        <ele>61</ele>
        <time>2014-05-07T11:18:37Z</time>
      </trkpt>
      <trkpt lat="48.82127" lon="2.45265">
        <ele>60</ele>
        <time>2014-05-07T11:19:08Z</time>
      </trkpt>
      <trkpt lat="48.82108" lon="2.45228">
        <ele>62</ele>
        <time>2014-05-07T11:19:29Z</time>
      </trkpt>
      <trkpt lat="48.82087" lon="2.45182">
        <ele>62</ele>
        <time>2014-05-07T11:19:54Z</time>
      </trkpt>
      <trkpt lat="48.82083" lon="2.45176">
        <ele>66</ele>
        <time>2014-05-07T11:19:57Z</time>
      </trkpt>
      <trkpt lat="48.82078" lon="2.45174">
        <ele>66</ele>
        <time>2014-05-07T11:20:01Z</time>
      </trkpt>
      <trkpt lat="48.8207" lon="2.4518">
        <ele>64</ele>
        <time>2014-05-07T11:20:09Z</time>
      </trkpt>
      <trkpt lat="48.82066" lon="2.45175">
        <ele>63</ele>
        <time>2014-05-07T11:20:16Z</time>
      </trkpt>
      <trkpt lat="48.8205" lon="2.45123">
        <ele>62</ele>
        <time>2014-05-07T11:20:47Z</time>
      </trkpt>
      <trkpt lat="48.82048" lon="2.45107">
        <ele>63</ele>
        <time>2014-05-07T11:20:53Z</time>
      </trkpt>
      <trkpt lat="48.82036" lon="2.45078">
        <ele>63</ele>
        <time>2014-05-07T11:21:08Z</time>
      </trkpt>
      <trkpt lat="48.82034" lon="2.4507">
        <ele>65</ele>
        <time>2014-05-07T11:21:13Z</time>
      </trkpt>
      <trkpt lat="48.82023" lon="2.4501">
        <ele>62</ele>
        <time>2014-05-07T11:21:43Z</time>
      </trkpt>
      <trkpt lat="48.82022" lon="2.44979">
        <ele>63</ele>
        <time>2014-05-07T11:22:00Z</time>
      </trkpt>
      <trkpt lat="48.82021" lon="2.44971">
        <ele>65</ele>
        <time>2014-05-07T11:22:05Z</time>
      </trkpt>
      <trkpt lat="48.82021" lon="2.44912">
        <ele>60</ele>
        <time>2014-05-07T11:22:36Z</time>
      </trkpt>
      <trkpt lat="48.82023" lon="2.44894">
        <ele>60</ele>
        <time>2014-05-07T11:22:44Z</time>
      </trkpt>
      <trkpt lat="48.8202" lon="2.44873">
        <ele>64</ele>
        <time>2014-05-07T11:22:51Z</time>
      </trkpt>
      <trkpt lat="48.82021" lon="2.44812">
        <ele>64</ele>
        <time>2014-05-07T11:23:21Z</time>
      </trkpt>
      <trkpt lat="48.82024" lon="2.44781">
        <ele>66</ele>
        <time>2014-05-07T11:23:33Z</time>
      </trkpt>
      <trkpt lat="48.82014" lon="2.44753">
        <ele>62</ele>
        <time>2014-05-07T11:23:49Z</time>
      </trkpt>
      <trkpt lat="48.82011" lon="2.44748">
        <ele>60</ele>
        <time>2014-05-07T11:23:53Z</time>
      </trkpt>
      <trkpt lat="48.82009" lon="2.44731">
        <ele>59</ele>
        <time>2014-05-07T11:24:02Z</time>
      </trkpt>
      <trkpt lat="48.82017" lon="2.44698">
        <ele>64</ele>
        <time>2014-05-07T11:24:16Z</time>
      </trkpt>
      <trkpt lat="48.82031" lon="2.44653">
        <ele>62</ele>
        <time>2014-05-07T11:24:39Z</time>
      </trkpt>
      <trkpt lat="48.82028" lon="2.44647">
        <ele>61</ele>
        <time>2014-05-07T11:24:42Z</time>
      </trkpt>
      <trkpt lat="48.82028" lon="2.44638">
        <ele>60</ele>
        <time>2014-05-07T11:24:46Z</time>
      </trkpt>
      <trkpt lat="48.82034" lon="2.44624">
        <ele>65</ele>
        <time>2014-05-07T11:24:54Z</time>
      </trkpt>
      <trkpt lat="48.82036" lon="2.44606">
        <ele>62</ele>
        <time>2014-05-07T11:25:02Z</time>
      </trkpt>
      <trkpt lat="48.82034" lon="2.446">
        <ele>62</ele>
        <time>2014-05-07T11:25:05Z</time>
      </trkpt>
      <trkpt lat="48.82036" lon="2.44591">
        <ele>61</ele>
        <time>2014-05-07T11:25:09Z</time>
      </trkpt>
      <trkpt lat="48.8206" lon="2.44528">
        <ele>61</ele>
        <time>2014-05-07T11:25:39Z</time>
      </trkpt>
      <trkpt lat="48.82069" lon="2.4452">
        <ele>62</ele>
        <time>2014-05-07T11:25:49Z</time>
      </trkpt>
      <trkpt lat="48.82078" lon="2.445">
        <ele>63</ele>
        <time>2014-05-07T11:26:00Z</time>
      </trkpt>
      <trkpt lat="48.82099" lon="2.44454">
        <ele>62</ele>
        <time>2014-05-07T11:26:32Z</time>
      </trkpt>
      <trkpt lat="48.82116" lon="2.44423">
        <ele>60</ele>
        <time>2014-05-07T11:26:49Z</time>
      </trkpt>
      <trkpt lat="48.82152" lon="2.44367">
        <ele>58</ele>
        <time>2014-05-07T11:27:22Z</time>
      </trkpt>
      <trkpt lat="48.82154" lon="2.44358">
        <ele>59</ele>
        <time>2014-05-07T11:27:26Z</time>
      </trkpt>
      <trkpt lat="48.82152" lon="2.44349">
        <ele>57</ele>
        <time>2014-05-07T11:27:30Z</time>
      </trkpt>
      <trkpt lat="48.82155" lon="2.44341">
        <ele>56</ele>
        <time>2014-05-07T11:27:34Z</time>
      </trkpt>
      <trkpt lat="48.82177" lon="2.44314">
        <ele>59</ele>
        <time>2014-05-07T11:27:50Z</time>
      </trkpt>
      <trkpt lat="48.82199" lon="2.4425">
        <ele>58</ele>
        <time>2014-05-07T11:28:21Z</time>
      </trkpt>
      <trkpt lat="48.82203" lon="2.44244">
        <ele>58</ele>
        <time>2014-05-07T11:28:25Z</time>
      </trkpt>
      <trkpt lat="48.82203" lon="2.4424">
        <ele>57</ele>
        <time>2014-05-07T11:28:27Z</time>
      </trkpt>
      <trkpt lat="48.82217" lon="2.44212">
        <ele>59</ele>
        <time>2014-05-07T11:28:43Z</time>
      </trkpt>
      <trkpt lat="48.8225" lon="2.44196">
        <ele>58</ele>
        <time>2014-05-07T11:29:14Z</time>
      </trkpt>
      <trkpt lat="48.82261" lon="2.44188">
        <ele>58</ele>
        <time>2014-05-07T11:29:22Z</time>
      </trkpt>
      <trkpt lat="48.82264" lon="2.44184">
        <ele>60</ele>
        <time>2014-05-07T11:29:25Z</time>
      </trkpt>
      <trkpt lat="48.8228" lon="2.44176">
        <ele>60</ele>
        <time>2014-05-07T11:29:35Z</time>
      </trkpt>
      <trkpt lat="48.82315" lon="2.44149">
        <ele>60</ele>
        <time>2014-05-07T11:30:06Z</time>
      </trkpt>
      <trkpt lat="48.82345" lon="2.44107">
        <ele>52</ele>
        <time>2014-05-07T11:30:31Z</time>
      </trkpt>
      <trkpt lat="48.82343" lon="2.44091">
        <ele>49</ele>
        <time>2014-05-07T11:30:39Z</time>
      </trkpt>
      <trkpt lat="48.82345" lon="2.44084">
        <ele>52</ele>
        <time>2014-05-07T11:30:42Z</time>
      </trkpt>
      <trkpt lat="48.82348" lon="2.44078">
        <ele>55</ele>
        <time>2014-05-07T11:30:46Z</time>
      </trkpt>
      <trkpt lat="48.82365" lon="2.44055">
        <ele>57</ele>
        <time>2014-05-07T11:31:01Z</time>
      </trkpt>
      <trkpt lat="48.82382" lon="2.44012">
        <ele>58</ele>
        <time>2014-05-07T11:31:24Z</time>
      </trkpt>
      <trkpt lat="48.82421" lon="2.43989">
        <ele>55</ele>
        <time>2014-05-07T11:31:55Z</time>
      </trkpt>
      <trkpt lat="48.82459" lon="2.43959">
        <ele>57</ele>
        <time>2014-05-07T11:32:25Z</time>
      </trkpt>
      <trkpt lat="48.82469" lon="2.43943">
        <ele>58</ele>
        <time>2014-05-07T11:32:33Z</time>
      </trkpt>
      <trkpt lat="48.82497" lon="2.4388">
        <ele>57</ele>
        <time>2014-05-07T11:33:03Z</time>
      </trkpt>
      <trkpt lat="48.82533" lon="2.43836">
        <ele>53</ele>
        <time>2014-05-07T11:33:36Z</time>
      </trkpt>
      <trkpt lat="48.82547" lon="2.43827">
        <ele>57</ele>
        <time>2014-05-07T11:33:46Z</time>
      </trkpt>
      <trkpt lat="48.82554" lon="2.43818">
        <ele>60</ele>
        <time>2014-05-07T11:33:52Z</time>
      </trkpt>
      <trkpt lat="48.82577" lon="2.43798">
        <ele>61</ele>
        <time>2014-05-07T11:34:10Z</time>
      </trkpt>
      <trkpt lat="48.82607" lon="2.43779">
        <ele>51</ele>
        <time>2014-05-07T11:34:42Z</time>
      </trkpt>
      <trkpt lat="48.82619" lon="2.43776">
        <ele>53</ele>
        <time>2014-05-07T11:34:50Z</time>
      </trkpt>
      <trkpt lat="48.82626" lon="2.43765">
        <ele>54</ele>
        <time>2014-05-07T11:34:57Z</time>
      </trkpt>
      <trkpt lat="48.82663" lon="2.43749">
        <ele>51</ele>
        <time>2014-05-07T11:35:25Z</time>
      </trkpt>
      <trkpt lat="48.82687" lon="2.43738">
        <ele>54</ele>
        <time>2014-05-07T11:35:40Z</time>
      </trkpt>
      <trkpt lat="48.82691" lon="2.43731">
        <ele>53</ele>
        <time>2014-05-07T11:35:45Z</time>
      </trkpt>
      <trkpt lat="48.82711" lon="2.43729">
        <ele>51</ele>
        <time>2014-05-07T11:35:59Z</time>
      </trkpt>
      <trkpt lat="48.82727" lon="2.4373">
        <ele>48</ele>
        <time>2014-05-07T11:36:08Z</time>
      </trkpt>
      <trkpt lat="48.82769" lon="2.43753">
        <ele>42</ele>
        <time>2014-05-07T11:36:38Z</time>
      </trkpt>
      <trkpt lat="48.82775" lon="2.43756">
        <ele>41</ele>
        <time>2014-05-07T11:36:42Z</time>
      </trkpt>
      <trkpt lat="48.82792" lon="2.43764">
        <ele>45</ele>
        <time>2014-05-07T11:36:57Z</time>
      </trkpt>
      <trkpt lat="48.82835" lon="2.43768">
        <ele>48</ele>
        <time>2014-05-07T11:37:27Z</time>
      </trkpt>
      <trkpt lat="48.82874" lon="2.43763">
        <ele>51</ele>
        <time>2014-05-07T11:38:01Z</time>
      </trkpt>
      <trkpt lat="48.82926" lon="2.43748">
        <ele>51</ele>
        <time>2014-05-07T11:38:32Z</time>
      </trkpt>
      <trkpt lat="48.82958" lon="2.43708">
        <ele>49</ele>
        <time>2014-05-07T11:39:04Z</time>
      </trkpt>
      <trkpt lat="48.82983" lon="2.43691">
        <ele>52</ele>
        <time>2014-05-07T11:39:21Z</time>
      </trkpt>
      <trkpt lat="48.83022" lon="2.43674">
        <ele>47</ele>
        <time>2014-05-07T11:39:51Z</time>
      </trkpt>
      <trkpt lat="48.83031" lon="2.43672">
        <ele>47</ele>
        <time>2014-05-07T11:39:57Z</time>
      </trkpt>
      <trkpt lat="48.83039" lon="2.43675">
        <ele>51</ele>
        <time>2014-05-07T11:40:03Z</time>
      </trkpt>
      <trkpt lat="48.83047" lon="2.43675">
        <ele>54</ele>
        <time>2014-05-07T11:40:09Z</time>
      </trkpt>
      <trkpt lat="48.83069" lon="2.43683">
        <ele>55</ele>
        <time>2014-05-07T11:40:27Z</time>
      </trkpt>
      <trkpt lat="48.83083" lon="2.43687">
        <ele>55</ele>
        <time>2014-05-07T11:40:37Z</time>
      </trkpt>
      <trkpt lat="48.8312" lon="2.437">
        <ele>45</ele>
        <time>2014-05-07T11:41:07Z</time>
      </trkpt>
      <trkpt lat="48.83143" lon="2.43692">
        <ele>43</ele>
        <time>2014-05-07T11:41:20Z</time>
      </trkpt>
      <trkpt lat="48.83149" lon="2.4369">
        <ele>47</ele>
        <time>2014-05-07T11:41:23Z</time>
      </trkpt>
      <trkpt lat="48.83156" lon="2.43691">
        <ele>49</ele>
        <time>2014-05-07T11:41:26Z</time>
      </trkpt>
      <trkpt lat="48.83174" lon="2.4369">
        <ele>46</ele>
        <time>2014-05-07T11:41:37Z</time>
      </trkpt>
      <trkpt lat="48.83192" lon="2.4367">
        <ele>47</ele>
        <time>2014-05-07T11:41:52Z</time>
      </trkpt>
      <trkpt lat="48.83197" lon="2.43665">
        <ele>49</ele>
        <time>2014-05-07T11:41:55Z</time>
      </trkpt>
      <trkpt lat="48.83203" lon="2.43664">
        <ele>46</ele>
        <time>2014-05-07T11:41:58Z</time>
      </trkpt>
      <trkpt lat="48.83225" lon="2.43653">
        <ele>45</ele>
        <time>2014-05-07T11:42:13Z</time>
      </trkpt>
      <trkpt lat="48.83236" lon="2.43661">
        <ele>45</ele>
        <time>2014-05-07T11:42:20Z</time>
      </trkpt>
      <trkpt lat="48.83244" lon="2.43668">
        <ele>47</ele>
        <time>2014-05-07T11:42:26Z</time>
      </trkpt>
      <trkpt lat="48.83285" lon="2.4371">
        <ele>50</ele>
        <time>2014-05-07T11:42:56Z</time>
      </trkpt>
      <trkpt lat="48.83289" lon="2.43715">
        <ele>50</ele>
        <time>2014-05-07T11:43:00Z</time>
      </trkpt>
      <trkpt lat="48.83329" lon="2.43714">
        <ele>45</ele>
        <time>2014-05-07T11:43:31Z</time>
      </trkpt>
      <trkpt lat="48.83343" lon="2.43715">
        <ele>45</ele>
        <time>2014-05-07T11:43:41Z</time>
      </trkpt>
      <trkpt lat="48.83387" lon="2.43708">
        <ele>45</ele>
        <time>2014-05-07T11:44:12Z</time>
      </trkpt>
      <trkpt lat="48.83432" lon="2.43699">
        <ele>47</ele>
        <time>2014-05-07T11:44:42Z</time>
      </trkpt>
      <trkpt lat="48.83477" lon="2.43695">
        <ele>48</ele>
        <time>2014-05-07T11:45:12Z</time>
      </trkpt>
      <trkpt lat="48.83487" lon="2.43692">
        <ele>49</ele>
        <time>2014-05-07T11:45:16Z</time>
      </trkpt>
      <trkpt lat="48.83527" lon="2.43683">
        <ele>46</ele>
        <time>2014-05-07T11:45:47Z</time>
      </trkpt>
      <trkpt lat="48.83544" lon="2.43676">
        <ele>48</ele>
        <time>2014-05-07T11:45:59Z</time>
      </trkpt>
      <trkpt lat="48.83589" lon="2.43673">
        <ele>46</ele>
        <time>2014-05-07T11:46:30Z</time>
      </trkpt>
      <trkpt lat="48.8362" lon="2.43659">
        <ele>45</ele>
        <time>2014-05-07T11:46:51Z</time>
      </trkpt>
      <trkpt lat="48.83639" lon="2.43625">
        <ele>45</ele>
        <time>2014-05-07T11:47:14Z</time>
      </trkpt>
      <trkpt lat="48.83677" lon="2.43626">
        <ele>46</ele>
        <time>2014-05-07T11:47:40Z</time>
      </trkpt>
      <trkpt lat="48.8368" lon="2.43627">
        <ele>48</ele>
        <time>2014-05-07T11:47:42Z</time>
      </trkpt>
      <trkpt lat="48.83727" lon="2.43634">
        <ele>43</ele>
        <time>2014-05-07T11:48:12Z</time>
      </trkpt>
      <trkpt lat="48.83737" lon="2.43636">
        <ele>43</ele>
        <time>2014-05-07T11:48:23Z</time>
      </trkpt>
      <trkpt lat="48.83769" lon="2.43647">
        <ele>44</ele>
        <time>2014-05-07T11:48:43Z</time>
      </trkpt>
      <trkpt lat="48.83788" lon="2.43665">
        <ele>46</ele>
        <time>2014-05-07T11:48:56Z</time>
      </trkpt>
      <trkpt lat="48.83836" lon="2.43653">
        <ele>43</ele>
        <time>2014-05-07T11:49:27Z</time>
      </trkpt>
      <trkpt lat="48.83878" lon="2.43644">
        <ele>45</ele>
        <time>2014-05-07T11:49:59Z</time>
      </trkpt>
      <trkpt lat="48.83894" lon="2.43643">
        <ele>43</ele>
        <time>2014-05-07T11:50:17Z</time>
      </trkpt>
      <trkpt lat="48.83896" lon="2.43645">
        <ele>43</ele>
        <time>2014-05-07T11:50:19Z</time>
      </trkpt>
      <trkpt lat="48.83899" lon="2.43658">
        <ele>44</ele>
        <time>2014-05-07T11:50:26Z</time>
      </trkpt>
      <trkpt lat="48.83899" lon="2.43664">
        <ele>43</ele>
        <time>2014-05-07T11:50:29Z</time>
      </trkpt>
      <trkpt lat="48.83901" lon="2.43667">
        <ele>42</ele>
        <time>2014-05-07T11:50:41Z</time>
      </trkpt>
    </trkseg>
  </trk>
</gpx>